sensor_id;sensor_type;location;lat;lon;timestamp;pressure;altitude;pressure_sealevel;temperature;humidity
41967;BME280;27656;53.068;8.818;2023-12-20T00:02:10;101125.06;;;4.66;100.00
41967;BME280;27656;53.068;8.818;2023-12-20T00:04:36;101120.38;;;4.58;100.00
41967;BME280;27656;53.068;8.818;2023-12-20T00:07:03;101118.13;;;4.65;100.00
41967;BME280;27656;53.068;8.818;2023-12-20T00:09:30;101119.19;;;4.62;100.00
41967;BME280;27656;53.068;8.818;2023-12-20T00:11:57;101113.63;;;4.67;100.00
41967;BME280;27656;53.068;8.818;2023-12-20T00:14:23;101114.94;;;4.61;100.00
41967;BME280;27656;53.068;8.818;2023-12-20T00:16:50;101106.81;;;4.53;100.00
41967;BME280;27656;53.068;8.818;2023-12-20T00:19:16;101105.56;;;4.46;100.00
41967;BME280;27656;53.068;8.818;2023-12-20T00:21:43;101117.59;;;4.49;100.00
41967;BME280;27656;53.068;8.818;2023-12-20T00:24:09;101116.59;;;4.62;100.00
41967;BME280;27656;53.068;8.818;2023-12-20T00:26:36;101108.38;;;4.56;100.00
41967;BME280;27656;53.068;8.818;2023-12-20T00:29:02;101107.97;;;4.49;100.00
41967;BME280;27656;53.068;8.818;2023-12-20T00:31:29;101117.31;;;4.40;100.00
41967;BME280;27656;53.068;8.818;2023-12-20T00:33:56;101114.91;;;4.37;100.00
41967;BME280;27656;53.068;8.818;2023-12-20T00:36:23;101121.25;;;4.46;100.00
41967;BME280;27656;53.068;8.818;2023-12-20T00:38:49;101114.69;;;4.40;100.00
41967;BME280;27656;53.068;8.818;2023-12-20T00:41:16;101113.34;;;4.35;100.00
41967;BME280;27656;53.068;8.818;2023-12-20T00:43:42;101114.19;;;4.35;100.00
41967;BME280;27656;53.068;8.818;2023-12-20T00:46:09;101099.56;;;4.33;100.00
41967;BME280;27656;53.068;8.818;2023-12-20T00:48:35;101097.66;;;4.35;100.00
41967;BME280;27656;53.068;8.818;2023-12-20T00:51:02;101096.16;;;4.43;100.00
41967;BME280;27656;53.068;8.818;2023-12-20T00:53:30;101096.47;;;4.52;100.00
41967;BME280;27656;53.068;8.818;2023-12-20T00:55:56;101090.94;;;4.43;100.00
41967;BME280;27656;53.068;8.818;2023-12-20T00:58:25;101094.00;;;4.37;100.00
41967;BME280;27656;53.068;8.818;2023-12-20T01:00:51;101093.38;;;4.34;100.00
41967;BME280;27656;53.068;8.818;2023-12-20T01:03:18;101097.38;;;4.27;100.00
41967;BME280;27656;53.068;8.818;2023-12-20T01:05:44;101089.84;;;4.22;100.00
41967;BME280;27656;53.068;8.818;2023-12-20T01:08:11;101086.50;;;4.20;100.00
41967;BME280;27656;53.068;8.818;2023-12-20T01:10:38;101078.81;;;4.18;100.00
41967;BME280;27656;53.068;8.818;2023-12-20T01:13:04;101080.47;;;4.19;100.00
41967;BME280;27656;53.068;8.818;2023-12-20T01:15:30;101085.50;;;4.10;100.00
41967;BME280;27656;53.068;8.818;2023-12-20T01:17:57;101087.50;;;4.06;100.00
41967;BME280;27656;53.068;8.818;2023-12-20T01:20:25;101090.97;;;4.07;100.00
41967;BME280;27656;53.068;8.818;2023-12-20T01:22:52;101092.75;;;4.06;100.00
41967;BME280;27656;53.068;8.818;2023-12-20T01:25:19;101094.97;;;4.23;100.00
41967;BME280;27656;53.068;8.818;2023-12-20T01:27:45;101093.09;;;4.25;100.00
41967;BME280;27656;53.068;8.818;2023-12-20T01:30:12;101080.25;;;4.22;100.00
41967;BME280;27656;53.068;8.818;2023-12-20T01:32:41;101067.38;;;4.19;100.00
41967;BME280;27656;53.068;8.818;2023-12-20T01:35:08;101070.00;;;4.19;100.00
41967;BME280;27656;53.068;8.818;2023-12-20T01:37:35;101062.41;;;4.16;100.00
41967;BME280;27656;53.068;8.818;2023-12-20T01:40:01;101066.47;;;4.20;100.00
41967;BME280;27656;53.068;8.818;2023-12-20T01:42:28;101069.81;;;4.22;100.00
41967;BME280;27656;53.068;8.818;2023-12-20T01:44:55;101076.13;;;4.31;100.00
41967;BME280;27656;53.068;8.818;2023-12-20T01:47:22;101070.72;;;4.34;100.00
41967;BME280;27656;53.068;8.818;2023-12-20T01:49:49;101062.31;;;4.42;100.00
41967;BME280;27656;53.068;8.818;2023-12-20T01:52:16;101044.34;;;4.37;100.00
41967;BME280;27656;53.068;8.818;2023-12-20T01:54:43;101050.63;;;4.35;100.00
41967;BME280;27656;53.068;8.818;2023-12-20T01:57:10;101045.44;;;4.22;100.00
41967;BME280;27656;53.068;8.818;2023-12-20T01:59:39;101046.63;;;4.18;100.00
41967;BME280;27656;53.068;8.818;2023-12-20T02:02:07;101052.91;;;4.15;100.00
41967;BME280;27656;53.068;8.818;2023-12-20T02:04:34;101052.34;;;4.23;100.00
41967;BME280;27656;53.068;8.818;2023-12-20T02:07:02;101049.50;;;4.26;100.00
41967;BME280;27656;53.068;8.818;2023-12-20T02:09:29;101046.56;;;4.31;100.00
41967;BME280;27656;53.068;8.818;2023-12-20T02:11:56;101041.88;;;4.23;100.00
41967;BME280;27656;53.068;8.818;2023-12-20T02:14:23;101047.13;;;4.23;100.00
41967;BME280;27656;53.068;8.818;2023-12-20T02:16:49;101045.22;;;4.25;100.00
41967;BME280;27656;53.068;8.818;2023-12-20T02:19:17;101041.16;;;4.21;100.00
41967;BME280;27656;53.068;8.818;2023-12-20T02:21:44;101037.81;;;4.19;100.00
41967;BME280;27656;53.068;8.818;2023-12-20T02:24:10;101034.38;;;4.18;100.00
41967;BME280;27656;53.068;8.818;2023-12-20T02:26:37;101024.41;;;4.23;100.00
41967;BME280;27656;53.068;8.818;2023-12-20T02:29:03;101028.19;;;4.19;100.00
41967;BME280;27656;53.068;8.818;2023-12-20T02:31:30;101036.03;;;4.19;100.00
41967;BME280;27656;53.068;8.818;2023-12-20T02:33:56;101019.44;;;4.20;100.00
41967;BME280;27656;53.068;8.818;2023-12-20T02:36:23;101014.69;;;4.25;100.00
41967;BME280;27656;53.068;8.818;2023-12-20T02:38:49;101017.19;;;4.27;100.00
41967;BME280;27656;53.068;8.818;2023-12-20T02:41:17;101010.41;;;4.24;100.00
41967;BME280;27656;53.068;8.818;2023-12-20T02:43:45;101010.78;;;4.31;100.00
41967;BME280;27656;53.068;8.818;2023-12-20T02:46:12;101000.97;;;4.35;100.00
41967;BME280;27656;53.068;8.818;2023-12-20T02:48:41;101010.78;;;4.31;100.00
41967;BME280;27656;53.068;8.818;2023-12-20T02:51:08;100992.78;;;4.39;100.00
41967;BME280;27656;53.068;8.818;2023-12-20T02:53:34;100999.22;;;4.46;100.00
41967;BME280;27656;53.068;8.818;2023-12-20T02:56:01;100991.03;;;4.51;100.00
41967;BME280;27656;53.068;8.818;2023-12-20T02:58:27;100991.41;;;4.58;100.00
41967;BME280;27656;53.068;8.818;2023-12-20T03:00:54;100984.06;;;4.63;100.00
41967;BME280;27656;53.068;8.818;2023-12-20T03:03:20;100986.22;;;4.69;100.00
41967;BME280;27656;53.068;8.818;2023-12-20T03:05:47;100983.84;;;4.66;100.00
41967;BME280;27656;53.068;8.818;2023-12-20T03:08:14;100976.47;;;4.71;100.00
41967;BME280;27656;53.068;8.818;2023-12-20T03:10:40;100982.19;;;4.76;100.00
41967;BME280;27656;53.068;8.818;2023-12-20T03:13:07;100979.13;;;4.82;100.00
41967;BME280;27656;53.068;8.818;2023-12-20T03:15:33;100973.75;;;4.84;100.00
41967;BME280;27656;53.068;8.818;2023-12-20T03:18:00;100981.84;;;4.81;100.00
41967;BME280;27656;53.068;8.818;2023-12-20T03:20:29;100983.53;;;4.82;100.00
41967;BME280;27656;53.068;8.818;2023-12-20T03:23:02;100990.31;;;4.84;100.00
41967;BME280;27656;53.068;8.818;2023-12-20T03:25:29;100981.59;;;4.84;100.00
41967;BME280;27656;53.068;8.818;2023-12-20T03:27:56;100975.69;;;4.82;100.00
41967;BME280;27656;53.068;8.818;2023-12-20T03:30:22;100983.53;;;4.82;100.00
41967;BME280;27656;53.068;8.818;2023-12-20T03:32:49;100979.94;;;4.83;100.00
41967;BME280;27656;53.068;8.818;2023-12-20T03:35:16;100976.50;;;4.82;100.00
41967;BME280;27656;53.068;8.818;2023-12-20T03:37:42;100975.78;;;4.80;100.00
41967;BME280;27656;53.068;8.818;2023-12-20T03:40:09;100967.94;;;4.80;100.00
41967;BME280;27656;53.068;8.818;2023-12-20T03:42:36;100966.28;;;4.91;100.00
41967;BME280;27656;53.068;8.818;2023-12-20T03:45:03;100960.44;;;4.98;100.00
41967;BME280;27656;53.068;8.818;2023-12-20T03:47:29;100958.09;;;4.95;100.00
41967;BME280;27656;53.068;8.818;2023-12-20T03:49:56;100959.03;;;4.94;100.00
41967;BME280;27656;53.068;8.818;2023-12-20T03:52:22;100956.91;;;4.99;100.00
41967;BME280;27656;53.068;8.818;2023-12-20T03:54:49;100957.84;;;4.98;100.00
41967;BME280;27656;53.068;8.818;2023-12-20T03:57:16;100955.84;;;5.02;100.00
41967;BME280;27656;53.068;8.818;2023-12-20T03:59:42;100952.97;;;5.05;100.00
41967;BME280;27656;53.068;8.818;2023-12-20T04:02:09;100950.34;;;5.05;100.00
41967;BME280;27656;53.068;8.818;2023-12-20T04:04:35;100941.22;;;4.99;100.00
41967;BME280;27656;53.068;8.818;2023-12-20T04:07:02;100947.03;;;5.03;100.00
41967;BME280;27656;53.068;8.818;2023-12-20T04:09:31;100939.16;;;5.03;100.00
41967;BME280;27656;53.068;8.818;2023-12-20T04:11:57;100934.06;;;5.01;100.00
41967;BME280;27656;53.068;8.818;2023-12-20T04:14:24;100935.75;;;5.14;100.00
41967;BME280;27656;53.068;8.818;2023-12-20T04:16:51;100928.34;;;5.07;100.00
41967;BME280;27656;53.068;8.818;2023-12-20T04:19:17;100924.91;;;5.07;100.00
41967;BME280;27656;53.068;8.818;2023-12-20T04:21:44;100940.59;;;5.07;100.00
41967;BME280;27656;53.068;8.818;2023-12-20T04:24:10;100929.06;;;5.09;100.00
41967;BME280;27656;53.068;8.818;2023-12-20T04:26:37;100923.47;;;5.14;100.00
41967;BME280;27656;53.068;8.818;2023-12-20T04:29:03;100928.72;;;5.14;100.00
41967;BME280;27656;53.068;8.818;2023-12-20T04:31:30;100926.69;;;5.18;100.00
41967;BME280;27656;53.068;8.818;2023-12-20T04:33:57;100921.09;;;5.11;100.00
41967;BME280;27656;53.068;8.818;2023-12-20T04:36:23;100922.03;;;5.10;100.00
41967;BME280;27656;53.068;8.818;2023-12-20T04:38:51;100913.97;;;5.13;100.00
41967;BME280;27656;53.068;8.818;2023-12-20T04:41:18;100918.97;;;5.16;100.00
41967;BME280;27656;53.068;8.818;2023-12-20T04:43:45;100914.81;;;5.14;100.00
41967;BME280;27656;53.068;8.818;2023-12-20T04:46:11;100924.66;;;5.10;100.00
41967;BME280;27656;53.068;8.818;2023-12-20T04:48:38;100916.22;;;5.06;100.00
41967;BME280;27656;53.068;8.818;2023-12-20T04:51:05;100927.41;;;4.97;100.00
41967;BME280;27656;53.068;8.818;2023-12-20T04:53:35;100925.41;;;5.01;100.00
41967;BME280;27656;53.068;8.818;2023-12-20T04:56:02;100923.72;;;5.00;100.00
41967;BME280;27656;53.068;8.818;2023-12-20T04:58:28;100929.06;;;5.09;100.00
41967;BME280;27656;53.068;8.818;2023-12-20T05:00:57;100915.53;;;5.16;100.00
41967;BME280;27656;53.068;8.818;2023-12-20T05:03:26;100909.78;;;5.22;100.00
41967;BME280;27656;53.068;8.818;2023-12-20T05:05:53;100905.53;;;5.21;100.00
41967;BME280;27656;53.068;8.818;2023-12-20T05:08:19;100896.47;;;5.25;100.00
41967;BME280;27656;53.068;8.818;2023-12-20T05:10:46;100894.44;;;5.17;100.00
41967;BME280;27656;53.068;8.818;2023-12-20T05:13:13;100895.31;;;5.18;100.00
41967;BME280;27656;53.068;8.818;2023-12-20T05:15:39;100884.56;;;5.21;100.00
41967;BME280;27656;53.068;8.818;2023-12-20T05:18:06;100893.03;;;5.24;100.00
41967;BME280;27656;53.068;8.818;2023-12-20T05:20:32;100899.22;;;5.23;100.00
41967;BME280;27656;53.068;8.818;2023-12-20T05:22:59;100891.09;;;5.26;100.00
41967;BME280;27656;53.068;8.818;2023-12-20T05:25:25;100890.88;;;5.29;100.00
41967;BME280;27656;53.068;8.818;2023-12-20T05:27:52;100895.25;;;5.29;100.00
41967;BME280;27656;53.068;8.818;2023-12-20T05:30:19;100898.03;;;5.16;100.00
41967;BME280;27656;53.068;8.818;2023-12-20T05:32:45;100891.25;;;5.14;100.00
41967;BME280;27656;53.068;8.818;2023-12-20T05:35:12;100894.94;;;5.22;100.00
41967;BME280;27656;53.068;8.818;2023-12-20T05:37:39;100893.03;;;5.24;100.00
41967;BME280;27656;53.068;8.818;2023-12-20T05:40:06;100896.00;;;5.20;100.00
41967;BME280;27656;53.068;8.818;2023-12-20T05:42:33;100890.06;;;5.18;100.00
41967;BME280;27656;53.068;8.818;2023-12-20T05:44:59;100890.31;;;5.03;100.00
41967;BME280;27656;53.068;8.818;2023-12-20T05:47:26;100901.00;;;5.00;100.00
41967;BME280;27656;53.068;8.818;2023-12-20T05:49:53;100893.97;;;5.12;100.00
41967;BME280;27656;53.068;8.818;2023-12-20T05:52:19;100889.34;;;5.27;100.00
41967;BME280;27656;53.068;8.818;2023-12-20T05:54:46;100899.19;;;5.35;100.00
41967;BME280;27656;53.068;8.818;2023-12-20T05:57:12;100899.66;;;5.40;100.00
41967;BME280;27656;53.068;8.818;2023-12-20T05:59:39;100893.72;;;5.38;100.00
41967;BME280;27656;53.068;8.818;2023-12-20T06:02:06;100877.91;;;5.39;100.00
41967;BME280;27656;53.068;8.818;2023-12-20T06:04:33;100886.69;;;5.38;100.00
41967;BME280;27656;53.068;8.818;2023-12-20T06:06:59;100884.78;;;5.40;100.00
41967;BME280;27656;53.068;8.818;2023-12-20T06:09:29;100866.00;;;5.35;100.00
41967;BME280;27656;53.068;8.818;2023-12-20T06:11:57;100864.81;;;5.28;100.00
41967;BME280;27656;53.068;8.818;2023-12-20T06:14:24;100867.09;;;5.21;100.00
41967;BME280;27656;53.068;8.818;2023-12-20T06:16:51;100877.44;;;5.23;100.00
41967;BME280;27656;53.068;8.818;2023-12-20T06:19:17;100869.22;;;5.27;100.00
41967;BME280;27656;53.068;8.818;2023-12-20T06:21:44;100872.06;;;5.36;100.00
41967;BME280;27656;53.068;8.818;2023-12-20T06:24:11;100873.59;;;5.49;100.00
41967;BME280;27656;53.068;8.818;2023-12-20T06:26:37;100865.59;;;5.51;100.00
41967;BME280;27656;53.068;8.818;2023-12-20T06:29:04;100871.56;;;5.53;100.00
41967;BME280;27656;53.068;8.818;2023-12-20T06:31:31;100874.50;;;5.60;100.00
41967;BME280;27656;53.068;8.818;2023-12-20T06:34:01;100862.81;;;5.64;100.00
41967;BME280;27656;53.068;8.818;2023-12-20T06:36:28;100865.34;;;5.65;100.00
41967;BME280;27656;53.068;8.818;2023-12-20T06:38:54;100855.69;;;5.66;100.00
41967;BME280;27656;53.068;8.818;2023-12-20T06:41:21;100848.78;;;5.65;100.00
41967;BME280;27656;53.068;8.818;2023-12-20T06:43:48;100844.22;;;5.67;100.00
41967;BME280;27656;53.068;8.818;2023-12-20T06:46:16;100836.53;;;5.65;100.00
41967;BME280;27656;53.068;8.818;2023-12-20T06:48:45;100829.03;;;5.61;100.00
41967;BME280;27656;53.068;8.818;2023-12-20T06:51:16;100830.69;;;5.62;100.00
41967;BME280;27656;53.068;8.818;2023-12-20T06:53:43;100834.72;;;5.66;100.00
41967;BME280;27656;53.068;8.818;2023-12-20T06:56:12;100840.06;;;5.64;100.00
41967;BME280;27656;53.068;8.818;2023-12-20T06:58:44;100829.69;;;5.74;100.00
41967;BME280;27656;53.068;8.818;2023-12-20T07:01:13;100823.94;;;5.80;100.00
41967;BME280;27656;53.068;8.818;2023-12-20T07:03:40;100832.78;;;5.79;100.00
41967;BME280;27656;53.068;8.818;2023-12-20T07:06:10;100824.41;;;5.85;100.00
41967;BME280;27656;53.068;8.818;2023-12-20T07:08:42;100836.47;;;5.77;100.00
41967;BME280;27656;53.068;8.818;2023-12-20T07:11:09;100835.63;;;5.76;100.00
41967;BME280;27656;53.068;8.818;2023-12-20T07:13:39;100833.00;;;5.76;100.00
41967;BME280;27656;53.068;8.818;2023-12-20T07:16:06;100818.72;;;5.80;100.00
41967;BME280;27656;53.068;8.818;2023-12-20T07:18:33;100820.63;;;5.78;100.00
41967;BME280;27656;53.068;8.818;2023-12-20T07:20:59;100818.97;;;5.77;100.00
41967;BME280;27656;53.068;8.818;2023-12-20T07:23:26;100817.88;;;5.80;100.00
41967;BME280;27656;53.068;8.818;2023-12-20T07:25:55;100815.44;;;5.88;100.00
41967;BME280;27656;53.068;8.818;2023-12-20T07:28:21;100812.97;;;5.86;100.00
41967;BME280;27656;53.068;8.818;2023-12-20T07:30:51;100819.88;;;5.87;100.00
41967;BME280;27656;53.068;8.818;2023-12-20T07:33:24;100823.41;;;5.98;100.00
41967;BME280;27656;53.068;8.818;2023-12-20T07:35:53;100815.81;;;5.94;100.00
41967;BME280;27656;53.068;8.818;2023-12-20T07:38:20;100824.38;;;5.97;100.00
41967;BME280;27656;53.068;8.818;2023-12-20T07:40:47;100828.03;;;6.05;100.00
41967;BME280;27656;53.068;8.818;2023-12-20T07:43:19;100823.88;;;6.03;100.00
41967;BME280;27656;53.068;8.818;2023-12-20T07:45:53;100813.41;;;6.03;100.00
41967;BME280;27656;53.068;8.818;2023-12-20T07:48:22;100824.91;;;6.11;100.00
41967;BME280;27656;53.068;8.818;2023-12-20T07:50:52;100808.59;;;6.08;100.00
41967;BME280;27656;53.068;8.818;2023-12-20T07:53:20;100816.47;;;6.08;100.00
41967;BME280;27656;53.068;8.818;2023-12-20T07:55:47;100800.31;;;6.03;100.00
41967;BME280;27656;53.068;8.818;2023-12-20T07:58:13;100803.38;;;6.08;100.00
41967;BME280;27656;53.068;8.818;2023-12-20T08:00:40;100795.63;;;6.06;100.00
41967;BME280;27656;53.068;8.818;2023-12-20T08:03:09;100796.59;;;6.05;100.00
41967;BME280;27656;53.068;8.818;2023-12-20T08:05:37;100785.41;;;6.03;100.00
41967;BME280;27656;53.068;8.818;2023-12-20T08:08:09;100790.31;;;5.97;100.00
41967;BME280;27656;53.068;8.818;2023-12-20T08:10:35;100787.31;;;6.01;100.00
41967;BME280;27656;53.068;8.818;2023-12-20T08:13:02;100785.25;;;6.05;100.00
41967;BME280;27656;53.068;8.818;2023-12-20T08:15:31;100783.34;;;6.07;100.00
41967;BME280;27656;53.068;8.818;2023-12-20T08:17:58;100787.38;;;6.11;100.00
41967;BME280;27656;53.068;8.818;2023-12-20T08:20:24;100779.25;;;6.14;100.00
41967;BME280;27656;53.068;8.818;2023-12-20T08:23:13;100782.22;;;6.30;100.00
41967;BME280;27656;53.068;8.818;2023-12-20T08:25:39;100777.13;;;6.29;100.00
41967;BME280;27656;53.068;8.818;2023-12-20T08:28:06;100783.63;;;6.34;100.00
41967;BME280;27656;53.068;8.818;2023-12-20T08:30:32;100764.31;;;6.35;100.00
41967;BME280;27656;53.068;8.818;2023-12-20T08:33:04;100769.16;;;6.40;100.00
41967;BME280;27656;53.068;8.818;2023-12-20T08:35:31;100767.81;;;6.46;100.00
41967;BME280;27656;53.068;8.818;2023-12-20T08:37:58;100764.09;;;6.48;100.00
41967;BME280;27656;53.068;8.818;2023-12-20T08:40:27;100772.97;;;6.57;100.00
41967;BME280;27656;53.068;8.818;2023-12-20T08:42:54;100769.78;;;6.53;100.00
41967;BME280;27656;53.068;8.818;2023-12-20T08:45:21;100749.34;;;6.57;100.00
41967;BME280;27656;53.068;8.818;2023-12-20T08:47:48;100747.97;;;6.53;100.00
41967;BME280;27656;53.068;8.818;2023-12-20T08:50:15;100738.03;;;6.56;100.00
41967;BME280;27656;53.068;8.818;2023-12-20T08:52:44;100735.13;;;6.59;100.00
41967;BME280;27656;53.068;8.818;2023-12-20T08:55:11;100742.38;;;6.67;100.00
41967;BME280;27656;53.068;8.818;2023-12-20T08:57:39;100728.44;;;6.76;100.00
41967;BME280;27656;53.068;8.818;2023-12-20T09:00:06;100725.25;;;6.73;100.00
41967;BME280;27656;53.068;8.818;2023-12-20T09:02:34;100739.75;;;6.67;100.00
41967;BME280;27656;53.068;8.818;2023-12-20T09:05:03;100736.69;;;6.62;100.00
41967;BME280;27656;53.068;8.818;2023-12-20T09:07:33;100728.38;;;6.57;100.00
41967;BME280;27656;53.068;8.818;2023-12-20T09:10:00;100741.47;;;6.57;100.00
41967;BME280;27656;53.068;8.818;2023-12-20T09:12:29;100734.19;;;6.61;100.00
41967;BME280;27656;53.068;8.818;2023-12-20T09:14:56;100727.16;;;6.61;100.00
41967;BME280;27656;53.068;8.818;2023-12-20T09:17:23;100717.72;;;6.49;100.00
41967;BME280;27656;53.068;8.818;2023-12-20T09:19:50;100729.03;;;6.49;100.00
41967;BME280;27656;53.068;8.818;2023-12-20T09:22:19;100738.59;;;6.50;100.00
41967;BME280;27656;53.068;8.818;2023-12-20T09:24:48;100727.94;;;6.52;100.00
41967;BME280;27656;53.068;8.818;2023-12-20T09:27:17;100743.00;;;6.59;100.00
41967;BME280;27656;53.068;8.818;2023-12-20T09:29:44;100735.69;;;6.53;100.00
41967;BME280;27656;53.068;8.818;2023-12-20T09:32:13;100725.72;;;6.47;100.00
41967;BME280;27656;53.068;8.818;2023-12-20T09:34:41;100721.31;;;6.48;100.00
41967;BME280;27656;53.068;8.818;2023-12-20T09:37:30;100729.44;;;6.45;100.00
41967;BME280;27656;53.068;8.818;2023-12-20T09:39:55;100717.41;;;6.42;100.00
41967;BME280;27656;53.068;8.818;2023-12-20T09:42:57;100730.84;;;6.49;100.00
41967;BME280;27656;53.068;8.818;2023-12-20T09:45:27;100735.50;;;6.45;100.00
41967;BME280;27656;53.068;8.818;2023-12-20T09:47:57;100755.00;;;6.52;100.00
41967;BME280;27656;53.068;8.818;2023-12-20T09:50:30;100762.06;;;6.62;100.00
41967;BME280;27656;53.068;8.818;2023-12-20T09:53:00;100811.59;;;6.24;100.00
41967;BME280;27656;53.068;8.818;2023-12-20T09:55:30;100816.00;;;5.70;100.00
41967;BME280;27656;53.068;8.818;2023-12-20T09:57:59;100807.75;;;5.54;100.00
41967;BME280;27656;53.068;8.818;2023-12-20T10:00:26;100808.94;;;5.50;100.00
41967;BME280;27656;53.068;8.818;2023-12-20T10:05:32;100809.38;;;5.23;100.00
41967;BME280;27656;53.068;8.818;2023-12-20T10:08:00;100788.47;;;5.12;100.00
41967;BME280;27656;53.068;8.818;2023-12-20T10:10:28;100779.91;;;5.09;100.00
41967;BME280;27656;53.068;8.818;2023-12-20T10:13:11;100794.78;;;5.09;100.00
41967;BME280;27656;53.068;8.818;2023-12-20T10:15:39;100798.22;;;5.09;100.00
41967;BME280;27656;53.068;8.818;2023-12-20T10:18:08;100786.69;;;5.12;100.00
41967;BME280;27656;53.068;8.818;2023-12-20T10:20:36;100786.56;;;5.14;100.00
41967;BME280;27656;53.068;8.818;2023-12-20T10:23:03;100779.16;;;5.19;100.00
41967;BME280;27656;53.068;8.818;2023-12-20T10:25:30;100784.16;;;5.22;100.00
41967;BME280;27656;53.068;8.818;2023-12-20T10:28:12;100792.97;;;5.21;100.00
41967;BME280;27656;53.068;8.818;2023-12-20T10:30:41;100797.72;;;5.27;100.00
41967;BME280;27656;53.068;8.818;2023-12-20T10:33:24;100801.88;;;5.29;100.00
41967;BME280;27656;53.068;8.818;2023-12-20T10:36:00;100800.53;;;5.35;100.00
41967;BME280;27656;53.068;8.818;2023-12-20T10:38:29;100807.31;;;5.38;100.00
41967;BME280;27656;53.068;8.818;2023-12-20T10:40:57;100799.72;;;5.35;100.00
41967;BME280;27656;53.068;8.818;2023-12-20T10:43:27;100787.66;;;5.43;100.00
41967;BME280;27656;53.068;8.818;2023-12-20T10:45:58;100800.06;;;5.41;100.00
41967;BME280;27656;53.068;8.818;2023-12-20T10:48:30;100801.94;;;5.50;100.00
41967;BME280;27656;53.068;8.818;2023-12-20T10:51:01;100798.72;;;5.47;100.00
41967;BME280;27656;53.068;8.818;2023-12-20T10:53:27;100801.59;;;5.44;100.00
41967;BME280;27656;53.068;8.818;2023-12-20T10:55:55;100793.78;;;5.32;100.00
41967;BME280;27656;53.068;8.818;2023-12-20T10:58:25;100787.47;;;5.35;100.00
41967;BME280;27656;53.068;8.818;2023-12-20T11:01:04;100773.41;;;5.36;100.00
41967;BME280;27656;53.068;8.818;2023-12-20T11:03:35;100774.09;;;5.38;100.00
41967;BME280;27656;53.068;8.818;2023-12-20T11:06:13;100770.03;;;5.45;100.00
41967;BME280;27656;53.068;8.818;2023-12-20T11:08:51;100768.84;;;5.49;100.00
41967;BME280;27656;53.068;8.818;2023-12-20T11:11:23;100774.19;;;5.48;100.00
41967;BME280;27656;53.068;8.818;2023-12-20T11:14:08;100788.69;;;5.52;100.00
41967;BME280;27656;53.068;8.818;2023-12-20T11:16:38;100783.91;;;5.57;100.00
41967;BME280;27656;53.068;8.818;2023-12-20T11:19:17;100786.31;;;5.60;100.00
41967;BME280;27656;53.068;8.818;2023-12-20T11:21:45;100778.31;;;5.62;100.00
41967;BME280;27656;53.068;8.818;2023-12-20T11:24:22;100781.53;;;5.65;100.00
41967;BME280;27656;53.068;8.818;2023-12-20T11:26:55;100768.09;;;5.80;100.00
41967;BME280;27656;53.068;8.818;2023-12-20T11:29:35;100769.75;;;5.81;100.00
41967;BME280;27656;53.068;8.818;2023-12-20T11:34:48;100773.69;;;5.86;100.00
41967;BME280;27656;53.068;8.818;2023-12-20T11:37:15;100769.97;;;5.89;100.00
41967;BME280;27656;53.068;8.818;2023-12-20T11:39:44;100764.09;;;5.97;100.00
41967;BME280;27656;53.068;8.818;2023-12-20T11:42:11;100767.66;;;5.95;100.00
41967;BME280;27656;53.068;8.818;2023-12-20T11:44:42;100769.41;;;6.06;100.00
41967;BME280;27656;53.068;8.818;2023-12-20T11:47:08;100758.94;;;6.06;100.00
41967;BME280;27656;53.068;8.818;2023-12-20T11:49:37;100756.75;;;6.11;100.00
41967;BME280;27656;53.068;8.818;2023-12-20T11:52:04;100771.13;;;6.17;100.00
41967;BME280;27656;53.068;8.818;2023-12-20T11:54:32;100773.22;;;6.23;100.00
41967;BME280;27656;53.068;8.818;2023-12-20T11:57:01;100781.34;;;6.20;100.00
41967;BME280;27656;53.068;8.818;2023-12-20T11:59:31;100783.28;;;6.18;100.00
41967;BME280;27656;53.068;8.818;2023-12-20T12:01:58;100779.44;;;6.22;100.00
41967;BME280;27656;53.068;8.818;2023-12-20T12:04:30;100783.06;;;6.31;100.00
41967;BME280;27656;53.068;8.818;2023-12-20T12:06:57;100784.91;;;6.40;100.00
41967;BME280;27656;53.068;8.818;2023-12-20T12:09:24;100787.72;;;6.48;100.00
41967;BME280;27656;53.068;8.818;2023-12-20T12:12:05;100790.38;;;6.58;100.00
41967;BME280;27656;53.068;8.818;2023-12-20T12:14:34;100778.84;;;6.80;100.00
41967;BME280;27656;53.068;8.818;2023-12-20T12:17:03;100779.28;;;6.95;100.00
41967;BME280;27656;53.068;8.818;2023-12-20T12:19:33;100782.78;;;7.05;100.00
41967;BME280;27656;53.068;8.818;2023-12-20T12:22:06;100780.16;;;7.05;100.00
41967;BME280;27656;53.068;8.818;2023-12-20T12:24:41;100770.38;;;7.17;100.00
41967;BME280;27656;53.068;8.818;2023-12-20T12:27:08;100757.38;;;7.25;100.00
41967;BME280;27656;53.068;8.818;2023-12-20T12:29:38;100760.72;;;7.27;100.00
41967;BME280;27656;53.068;8.818;2023-12-20T12:32:10;100757.09;;;7.28;100.00
41967;BME280;27656;53.068;8.818;2023-12-20T12:34:43;100766.50;;;7.21;100.00
41967;BME280;27656;53.068;8.818;2023-12-20T12:37:10;100767.31;;;7.12;100.00
41967;BME280;27656;53.068;8.818;2023-12-20T12:39:46;100767.97;;;6.94;100.00
41967;BME280;27656;53.068;8.818;2023-12-20T12:42:14;100793.38;;;6.84;100.00
41967;BME280;27656;53.068;8.818;2023-12-20T12:44:42;100785.78;;;6.81;100.00
41967;BME280;27656;53.068;8.818;2023-12-20T12:47:09;100787.97;;;6.86;100.00
41967;BME280;27656;53.068;8.818;2023-12-20T12:49:36;100784.09;;;6.80;100.00
41967;BME280;27656;53.068;8.818;2023-12-20T12:52:02;100778.03;;;6.79;100.00
41967;BME280;27656;53.068;8.818;2023-12-20T12:54:31;100775.69;;;6.76;100.00
41967;BME280;27656;53.068;8.818;2023-12-20T12:56:57;100779.13;;;6.77;100.00
41967;BME280;27656;53.068;8.818;2023-12-20T12:59:24;100783.09;;;6.71;100.00
41967;BME280;27656;53.068;8.818;2023-12-20T13:01:51;100781.03;;;6.75;100.00